Time;durP1;ratioP1;P1;durP2;ratioP2;P2;SDS_P1;SDS_P2;PMS_P1;PMS_P2;Temp;Humidity;BMP_temperature;BMP_pressure;BME280_temperature;BME280_humidity;BME280_pressure;Samples;Min_cycle;Max_cycle;Signal;HPM_P1;HPM_P2
2023/10/20 00:00:38;;;;;;;43.67;16.47;;;;;;;;;;6247199;23;20166;-91
2023/10/20 00:03:08;;;;;;;38.17;15.27;;;;;;;;;;6247632;23;20174;-92
2023/10/20 00:05:37;;;;;;;25.23;14.27;;;;;;;;;;6246849;23;20242;-91
2023/10/20 00:08:07;;;;;;;35.10;13.70;;;;;;;;;;6247148;23;20204;-92
2023/10/20 00:10:36;;;;;;;72.77;18.17;;;;;;;;;;6247687;23;20180;-91
2023/10/20 00:13:05;;;;;;;29.20;13.47;;;;;;;;;;6247140;23;20171;-92
2023/10/20 00:15:34;;;;;;;44.73;20.93;;;;;;;;;;6246940;23;20185;-91
2023/10/20 00:18:03;;;;;;;23.17;13.27;;;;;;;;;;6246702;23;20173;-91
2023/10/20 00:20:33;;;;;;;48.90;24.30;;;;;;;;;;6246920;23;20201;-90
2023/10/20 00:23:02;;;;;;;18.20;12.17;;;;;;;;;;6246883;23;20174;-91
2023/10/20 00:25:31;;;;;;;42.07;21.90;;;;;;;;;;6247127;23;20181;-90
2023/10/20 00:28:00;;;;;;;35.53;18.00;;;;;;;;;;6248215;23;20195;-91
2023/10/20 00:30:28;;;;;;;24.90;13.40;;;;;;;;;;6248440;23;20193;-92
2023/10/20 00:32:57;;;;;;;39.70;21.10;;;;;;;;;;6246865;23;20176;-91
2023/10/20 00:35:26;;;;;;;32.67;17.83;;;;;;;;;;6246872;23;20210;-91
2023/10/20 00:37:56;;;;;;;27.00;17.80;;;;;;;;;;6247472;23;20201;-91
2023/10/20 00:40:25;;;;;;;37.67;19.57;;;;;;;;;;6247620;23;20178;-91
2023/10/20 00:42:53;;;;;;;46.23;23.07;;;;;;;;;;6246885;23;20180;-91
2023/10/20 00:45:22;;;;;;;39.67;22.00;;;;;;;;;;6246704;23;20206;-90
2023/10/20 00:47:51;;;;;;;30.80;16.13;;;;;;;;;;6247070;23;20242;-91
2023/10/20 00:50:20;;;;;;;39.77;21.67;;;;;;;;;;6246654;23;20201;-92
2023/10/20 00:52:50;;;;;;;33.57;15.83;;;;;;;;;;6246816;23;20169;-91
2023/10/20 00:55:21;;;;;;;31.37;18.43;;;;;;;;;;6247044;23;20176;-91
2023/10/20 00:57:49;;;;;;;37.23;21.03;;;;;;;;;;6247928;23;20184;-91
2023/10/20 01:00:18;;;;;;;26.33;14.37;;;;;;;;;;6247287;23;20171;-92
2023/10/20 01:02:48;;;;;;;9.27;8.43;;;;;;;;;;6246784;23;20193;-91
2023/10/20 01:05:22;;;;;;;25.60;11.90;;;;;;;;;;6246556;23;20166;-92
2023/10/20 01:07:51;;;;;;;22.10;12.30;;;;;;;;;;6246977;23;20177;-91
2023/10/20 01:10:21;;;;;;;12.87;9.67;;;;;;;;;;6247984;23;20428;-91
2023/10/20 01:12:49;;;;;;;28.13;16.00;;;;;;;;;;6246728;23;20189;-92
2023/10/20 01:15:18;;;;;;;27.13;16.33;;;;;;;;;;6246932;23;20174;-91
2023/10/20 01:17:46;;;;;;;17.90;9.37;;;;;;;;;;6247855;23;20174;-91
2023/10/20 01:20:17;;;;;;;17.40;8.07;;;;;;;;;;6246560;23;20185;-91
2023/10/20 01:22:46;;;;;;;37.97;21.87;;;;;;;;;;6246783;23;20170;-91
2023/10/20 01:25:16;;;;;;;26.70;13.97;;;;;;;;;;6246158;23;20170;-90
2023/10/20 01:27:45;;;;;;;25.77;14.10;;;;;;;;;;6246709;23;20176;-91
2023/10/20 01:30:13;;;;;;;35.23;22.13;;;;;;;;;;6247004;23;20232;-91
2023/10/20 01:32:42;;;;;;;19.47;11.20;;;;;;;;;;6246122;23;20200;-92
2023/10/20 01:35:13;;;;;;;27.20;17.53;;;;;;;;;;6246950;23;20170;-91
2023/10/20 01:37:42;;;;;;;32.47;22.27;;;;;;;;;;6247060;23;20265;-91
2023/10/20 01:40:12;;;;;;;24.53;11.17;;;;;;;;;;6246392;23;20166;-90
2023/10/20 01:42:42;;;;;;;23.47;14.90;;;;;;;;;;6246156;23;20276;-91
2023/10/20 01:45:11;;;;;;;21.77;11.80;;;;;;;;;;6246851;23;20196;-90
2023/10/20 01:47:40;;;;;;;21.07;13.53;;;;;;;;;;6246629;23;20197;-92
2023/10/20 01:50:09;;;;;;;34.17;19.03;;;;;;;;;;6246680;23;20205;-91
2023/10/20 01:52:37;;;;;;;23.70;15.87;;;;;;;;;;6245887;23;20177;-91
2023/10/20 01:55:06;;;;;;;33.43;19.27;;;;;;;;;;6247339;23;20256;-92
2023/10/20 01:57:35;;;;;;;28.10;17.00;;;;;;;;;;6247492;23;20174;-92
2023/10/20 02:00:08;;;;;;;38.63;19.67;;;;;;;;;;6247822;23;20166;-91
2023/10/20 02:02:37;;;;;;;26.43;16.33;;;;;;;;;;6245770;23;20173;-91
2023/10/20 02:05:08;;;;;;;23.10;11.80;;;;;;;;;;6246317;23;20223;-91
2023/10/20 02:07:37;;;;;;;14.83;10.73;;;;;;;;;;6246110;23;20177;-91
2023/10/20 02:10:06;;;;;;;24.07;14.83;;;;;;;;;;6246610;23;20185;-91
2023/10/20 02:12:35;;;;;;;34.93;19.67;;;;;;;;;;6246296;23;20190;-92
2023/10/20 02:15:07;;;;;;;29.40;15.97;;;;;;;;;;6246745;23;20174;-91
2023/10/20 02:17:36;;;;;;;25.43;14.90;;;;;;;;;;6247258;23;20174;-91
2023/10/20 02:20:06;;;;;;;24.97;14.80;;;;;;;;;;6246678;23;20244;-90
2023/10/20 02:22:34;;;;;;;19.10;12.17;;;;;;;;;;6245632;23;20178;-91
2023/10/20 02:25:03;;;;;;;21.47;13.40;;;;;;;;;;6246096;23;20256;-91
2023/10/20 02:27:32;;;;;;;39.87;22.13;;;;;;;;;;6246799;23;20174;-91
2023/10/20 02:30:01;;;;;;;19.23;11.50;;;;;;;;;;6245354;23;20192;-90
2023/10/20 02:32:31;;;;;;;20.30;12.20;;;;;;;;;;6246289;23;20220;-91
2023/10/20 02:35:00;;;;;;;24.93;15.60;;;;;;;;;;6246808;23;20166;-91
2023/10/20 02:37:28;;;;;;;26.20;16.50;;;;;;;;;;6246993;23;20260;-92
2023/10/20 02:39:57;;;;;;;29.10;15.70;;;;;;;;;;6246130;23;20195;-90
2023/10/20 02:42:26;;;;;;;32.57;18.70;;;;;;;;;;6247155;23;20168;-90
2023/10/20 02:44:54;;;;;;;42.00;23.47;;;;;;;;;;6246295;23;20174;-92
2023/10/20 02:47:23;;;;;;;39.93;21.33;;;;;;;;;;6247047;23;20235;-91
2023/10/20 02:49:55;;;;;;;25.30;13.40;;;;;;;;;;6245556;23;20247;-91
2023/10/20 02:52:24;;;;;;;29.90;14.23;;;;;;;;;;6247448;23;20173;-91
2023/10/20 02:54:54;;;;;;;31.13;17.20;;;;;;;;;;6247358;23;20178;-91
2023/10/20 02:57:22;;;;;;;36.83;19.60;;;;;;;;;;6248532;23;20170;-92
2023/10/20 02:59:51;;;;;;;32.90;20.40;;;;;;;;;;6248782;23;20166;-90
2023/10/20 03:02:22;;;;;;;35.53;20.83;;;;;;;;;;6249398;23;20204;-91
2023/10/20 03:04:54;;;;;;;30.80;17.30;;;;;;;;;;6249909;23;20229;-90
2023/10/20 03:07:27;;;;;;;46.13;23.60;;;;;;;;;;6250677;23;20170;-90
2023/10/20 03:09:57;;;;;;;43.97;24.97;;;;;;;;;;6249379;23;20197;-92
2023/10/20 03:12:25;;;;;;;32.73;20.57;;;;;;;;;;6250373;23;20187;-91
2023/10/20 03:14:54;;;;;;;28.43;14.27;;;;;;;;;;6249476;23;20176;-92
2023/10/20 03:17:22;;;;;;;18.70;11.97;;;;;;;;;;6250696;23;20175;-92
2023/10/20 03:19:51;;;;;;;32.07;17.53;;;;;;;;;;6249741;23;20182;-92
2023/10/20 03:22:20;;;;;;;32.03;18.87;;;;;;;;;;6249677;23;20205;-90
2023/10/20 03:24:50;;;;;;;22.60;13.33;;;;;;;;;;6249858;23;20197;-91
2023/10/20 03:27:18;;;;;;;27.83;16.00;;;;;;;;;;6250361;23;20200;-92
2023/10/20 03:29:47;;;;;;;23.67;14.40;;;;;;;;;;6248502;23;20200;-92
2023/10/20 03:32:16;;;;;;;22.43;12.40;;;;;;;;;;6250120;23;20291;-92
2023/10/20 03:34:46;;;;;;;30.73;17.77;;;;;;;;;;6250255;23;20178;-91
2023/10/20 03:37:15;;;;;;;29.43;17.53;;;;;;;;;;6249523;23;20166;-90
2023/10/20 03:39:44;;;;;;;27.30;15.93;;;;;;;;;;6248914;23;20166;-92
2023/10/20 03:42:14;;;;;;;25.93;15.30;;;;;;;;;;6250229;23;20166;-92
2023/10/20 03:44:43;;;;;;;32.70;18.87;;;;;;;;;;6250007;23;20170;-92
2023/10/20 03:47:13;;;;;;;28.43;14.93;;;;;;;;;;6249411;23;20169;-91
2023/10/20 03:49:42;;;;;;;27.43;17.23;;;;;;;;;;6246418;23;20206;-91
2023/10/20 03:52:13;;;;;;;39.87;18.83;;;;;;;;;;6250768;23;20177;-91
2023/10/20 03:54:42;;;;;;;27.97;15.20;;;;;;;;;;6250516;23;20166;-92
2023/10/20 03:57:15;;;;;;;39.63;23.10;;;;;;;;;;6250238;23;20170;-92
2023/10/20 03:59:48;;;;;;;36.97;22.33;;;;;;;;;;6252712;23;20162;-93
2023/10/20 04:02:16;;;;;;;35.30;19.43;;;;;;;;;;6253964;23;20170;-92
2023/10/20 04:04:45;;;;;;;23.77;14.63;;;;;;;;;;6252525;23;20225;-91
2023/10/20 04:07:15;;;;;;;28.73;16.27;;;;;;;;;;6251904;23;20182;-92
2023/10/20 04:09:44;;;;;;;27.63;15.60;;;;;;;;;;6251671;23;20175;-91
2023/10/20 04:12:12;;;;;;;34.07;19.03;;;;;;;;;;6253797;23;20183;-92
2023/10/20 04:14:41;;;;;;;47.83;25.90;;;;;;;;;;6252061;23;20208;-90
2023/10/20 04:17:11;;;;;;;27.33;15.20;;;;;;;;;;6251263;23;20180;-90
2023/10/20 04:19:40;;;;;;;24.30;15.17;;;;;;;;;;6250843;23;20189;-92
2023/10/20 04:22:13;;;;;;;46.60;25.60;;;;;;;;;;6251507;23;20204;-91
2023/10/20 04:24:44;;;;;;;33.93;19.23;;;;;;;;;;6250766;23;20208;-89
2023/10/20 04:27:21;;;;;;;30.47;15.87;;;;;;;;;;6249585;23;20233;-92
2023/10/20 04:43:41;;;;;;;24.03;13.13;;;;;;;;;;6248966;23;20179;-92
2023/10/20 04:49:26;;;;;;;11.27;8.13;;;;;;;;;;6249825;23;20209;-90
2023/10/20 04:52:06;;;;;;;29.13;18.37;;;;;;;;;;6220308;23;20214;-91
2023/10/20 04:54:50;;;;;;;8.97;7.17;;;;;;;;;;6219857;23;20184;-90
2023/10/20 04:57:37;;;;;;;13.67;9.53;;;;;;;;;;6214578;23;20178;-90
2023/10/20 05:02:58;;;;;;;23.90;12.80;;;;;;;;;;6217253;23;20185;-92
2023/10/20 05:05:34;;;;;;;20.90;14.93;;;;;;;;;;6222131;23;20218;-91
2023/10/20 05:08:16;;;;;;;24.63;14.33;;;;;;;;;;6222416;23;20186;-90
2023/10/20 05:10:45;;;;;;;32.43;20.00;;;;;;;;;;6224015;23;20457;-92
2023/10/20 05:13:13;;;;;;;31.60;14.97;;;;;;;;;;6221582;23;20170;-91
2023/10/20 05:15:43;;;;;;;28.43;17.53;;;;;;;;;;6221271;23;20171;-93
2023/10/20 05:18:12;;;;;;;22.63;12.87;;;;;;;;;;6219963;23;20170;-92
2023/10/20 05:20:45;;;;;;;38.40;21.97;;;;;;;;;;6219294;23;20192;-92
2023/10/20 05:23:15;;;;;;;35.63;21.00;;;;;;;;;;6219037;23;20265;-91
2023/10/20 05:25:48;;;;;;;37.73;17.83;;;;;;;;;;6217447;23;20170;-92
2023/10/20 05:28:17;;;;;;;23.40;13.47;;;;;;;;;;6218254;23;20170;-92
2023/10/20 05:30:46;;;;;;;28.87;15.97;;;;;;;;;;6218938;23;20186;-91
2023/10/20 05:33:15;;;;;;;30.30;18.40;;;;;;;;;;6217396;23;20257;-92
2023/10/20 05:35:45;;;;;;;26.33;15.40;;;;;;;;;;6217166;23;20213;-91
2023/10/20 05:38:14;;;;;;;22.47;8.90;;;;;;;;;;6218887;23;20200;-91
2023/10/20 05:40:43;;;;;;;28.00;16.20;;;;;;;;;;6217787;23;20278;-90
2023/10/20 05:43:12;;;;;;;25.03;15.33;;;;;;;;;;6217359;23;20174;-92
2023/10/20 05:45:41;;;;;;;22.83;12.93;;;;;;;;;;6218298;23;20180;-92
2023/10/20 05:48:10;;;;;;;27.03;14.47;;;;;;;;;;6220902;23;20170;-93
2023/10/20 06:13:08;;;;;;;14.87;10.73;;;;;;;;;;6136577;22;1612278;-93
2023/10/20 06:15:43;;;;;;;24.33;15.53;;;;;;;;;;6194878;23;20232;-93
2023/10/20 06:18:24;;;;;;;14.83;10.20;;;;;;;;;;6191600;23;20178;-93
2023/10/20 06:21:05;;;;;;;16.83;11.13;;;;;;;;;;6187440;23;20197;-90
2023/10/20 06:23:37;;;;;;;24.07;13.00;;;;;;;;;;6187674;23;20691;-93
2023/10/20 06:26:05;;;;;;;20.10;13.57;;;;;;;;;;6189221;23;20175;-91
2023/10/20 06:28:35;;;;;;;24.87;14.17;;;;;;;;;;6189860;23;20285;-93
2023/10/20 06:31:26;;;;;;;28.17;15.50;;;;;;;;;;6195138;23;20249;-93
2023/10/20 06:34:00;;;;;;;31.63;20.40;;;;;;;;;;6187320;23;20288;-92
2023/10/20 06:36:30;;;;;;;21.83;15.10;;;;;;;;;;6188022;23;20198;-93
2023/10/20 06:39:21;;;;;;;28.93;18.23;;;;;;;;;;6190934;23;20224;-93
2023/10/20 06:46:07;;;;;;;;;;;;;;;;;;;;;
2023/10/20 06:49:03;;;;;;;19.83;12.53;;;;;;;;;;6057252;23;20279;-91
2023/10/20 06:55:35;;;;;;;10.90;7.17;;;;;;;;;;5980652;23;20188;-92
2023/10/20 06:58:55;;;;;;;;;;;;;;;;;;;;;
2023/10/20 07:01:50;;;;;;;13.77;8.30;;;;;;;;;;6047694;23;20214;-90
2023/10/20 07:05:05;;;;;;;;;;;;;;;;;;;;;
2023/10/20 07:08:10;;;;;;;13.00;8.57;;;;;;;;;;6099550;23;20214;-92
2023/10/20 07:10:59;;;;;;;14.80;9.77;;;;;;;;;;6097357;23;20175;-91
2023/10/20 07:14:16;;;;;;;;;;;;;;;;;;;;;
2023/10/20 07:21:13;;;;;;;15.63;11.07;;;;;;;;;;5799493;24;20270;-92
2023/10/20 07:24:07;;;;;;;16.33;10.80;;;;;;;;;;5962272;24;20194;-92
2023/10/20 07:26:35;;;;;;;13.40;10.13;;;;;;;;;;6070556;23;20179;-91
2023/10/20 07:29:04;;;;;;;14.50;9.87;;;;;;;;;;6095369;23;20203;-90
2023/10/20 07:31:39;;;;;;;7.87;6.07;;;;;;;;;;6184599;23;20229;-91
2023/10/20 07:34:13;;;;;;;11.67;7.87;;;;;;;;;;6184213;23;20179;-92
2023/10/20 07:36:46;;;;;;;11.03;8.13;;;;;;;;;;6184497;23;20174;-91
2023/10/20 07:39:17;;;;;;;11.63;7.87;;;;;;;;;;6185212;23;20188;-91
2023/10/20 07:41:49;;;;;;;12.00;9.83;;;;;;;;;;6184937;23;20193;-92
2023/10/20 07:44:18;;;;;;;14.83;9.83;;;;;;;;;;6185546;23;20177;-91
2023/10/20 07:46:46;;;;;;;6.97;6.20;;;;;;;;;;6185569;23;20174;-90
2023/10/20 07:49:16;;;;;;;11.67;8.57;;;;;;;;;;6185168;23;20182;-92
2023/10/20 07:51:45;;;;;;;12.23;8.63;;;;;;;;;;6185051;23;20217;-91
2023/10/20 07:54:14;;;;;;;10.83;8.07;;;;;;;;;;6185765;23;20252;-91
2023/10/20 07:56:44;;;;;;;14.00;10.43;;;;;;;;;;6185634;23;20186;-90
2023/10/20 07:59:13;;;;;;;8.83;6.43;;;;;;;;;;6185094;23;20213;-91
2023/10/20 08:01:41;;;;;;;12.33;7.67;;;;;;;;;;6184932;23;20225;-91
2023/10/20 08:04:10;;;;;;;11.67;7.80;;;;;;;;;;6186162;23;20185;-92
2023/10/20 08:06:39;;;;;;;6.47;5.33;;;;;;;;;;6184846;23;20174;-91
2023/10/20 08:09:10;;;;;;;10.63;8.17;;;;;;;;;;6185544;23;20186;-91
2023/10/20 08:11:41;;;;;;;13.37;9.27;;;;;;;;;;6185734;23;20289;-91
2023/10/20 08:14:12;;;;;;;8.10;6.27;;;;;;;;;;6185703;23;20175;-91
2023/10/20 08:16:40;;;;;;;11.00;8.47;;;;;;;;;;6185704;23;20175;-92
2023/10/20 08:19:11;;;;;;;9.97;7.63;;;;;;;;;;6184869;23;20224;-92
2023/10/20 08:21:40;;;;;;;7.43;5.73;;;;;;;;;;6185605;23;20226;-91
2023/10/20 08:24:10;;;;;;;7.73;6.67;;;;;;;;;;6185317;23;20243;-91
2023/10/20 08:26:39;;;;;;;5.57;4.63;;;;;;;;;;6186095;23;20234;-91
2023/10/20 08:29:11;;;;;;;4.27;3.20;;;;;;;;;;6185486;23;20252;-91
2023/10/20 08:31:42;;;;;;;5.63;4.50;;;;;;;;;;6185968;23;20257;-91
2023/10/20 08:34:13;;;;;;;8.13;5.57;;;;;;;;;;6185772;23;20252;-91
2023/10/20 08:36:42;;;;;;;6.00;4.63;;;;;;;;;;6185803;23;20177;-91
2023/10/20 08:39:17;;;;;;;8.47;5.67;;;;;;;;;;6186009;23;20224;-89
2023/10/20 08:41:52;;;;;;;5.80;4.77;;;;;;;;;;6185895;23;20182;-91
2023/10/20 08:44:22;;;;;;;5.77;4.97;;;;;;;;;;6186265;23;20179;-90
2023/10/20 08:46:55;;;;;;;4.50;4.07;;;;;;;;;;6186554;23;20169;-91
2023/10/20 08:49:24;;;;;;;5.40;3.13;;;;;;;;;;6195464;23;20170;-92
2023/10/20 08:51:54;;;;;;;5.57;3.37;;;;;;;;;;6186321;23;20229;-92
2023/10/20 08:54:23;;;;;;;5.03;4.47;;;;;;;;;;6185300;23;20232;-91
2023/10/20 08:56:55;;;;;;;6.13;4.80;;;;;;;;;;6184953;23;20214;-91
2023/10/20 08:59:23;;;;;;;3.47;3.07;;;;;;;;;;6184385;23;20170;-91
2023/10/20 09:01:56;;;;;;;2.63;2.43;;;;;;;;;;6185430;23;20255;-88
2023/10/20 09:04:26;;;;;;;3.07;2.20;;;;;;;;;;6185091;23;20180;-91
2023/10/20 09:06:55;;;;;;;4.20;3.67;;;;;;;;;;6184451;23;20229;-91
2023/10/20 09:09:24;;;;;;;5.27;3.70;;;;;;;;;;6185347;23;20205;-91
2023/10/20 09:11:56;;;;;;;3.60;3.20;;;;;;;;;;6184976;23;20204;-92
2023/10/20 09:14:27;;;;;;;3.10;2.87;;;;;;;;;;6185003;23;20203;-91
2023/10/20 09:17:01;;;;;;;5.33;4.50;;;;;;;;;;6184960;23;20180;-91
2023/10/20 09:19:30;;;;;;;4.20;3.43;;;;;;;;;;6184674;23;20193;-92
2023/10/20 09:21:58;;;;;;;3.53;3.23;;;;;;;;;;6184646;23;20173;-92
2023/10/20 09:24:30;;;;;;;4.63;3.20;;;;;;;;;;6184852;23;20282;-91
2023/10/20 09:26:59;;;;;;;3.13;2.60;;;;;;;;;;6184438;23;20177;-92
2023/10/20 09:29:29;;;;;;;2.77;2.47;;;;;;;;;;6185626;23;20174;-91
2023/10/20 09:32:01;;;;;;;3.83;2.93;;;;;;;;;;6184208;23;20174;-90
2023/10/20 09:34:29;;;;;;;4.23;3.83;;;;;;;;;;6184660;23;20170;-92
2023/10/20 09:37:00;;;;;;;3.00;2.67;;;;;;;;;;6184532;23;20200;-91
2023/10/20 09:39:35;;;;;;;2.57;2.37;;;;;;;;;;6185245;23;20167;-92
2023/10/20 09:42:07;;;;;;;3.53;2.20;;;;;;;;;;6184835;23;20172;-92
2023/10/20 09:44:40;;;;;;;2.53;1.83;;;;;;;;;;6184953;23;20199;-91
2023/10/20 09:47:17;;;;;;;2.80;2.57;;;;;;;;;;6183911;23;20169;-91
2023/10/20 09:49:47;;;;;;;2.73;2.53;;;;;;;;;;6185428;23;20213;-91
2023/10/20 09:52:19;;;;;;;2.33;1.90;;;;;;;;;;6186503;23;20181;-92
2023/10/20 09:54:50;;;;;;;3.07;2.70;;;;;;;;;;6184936;23;20184;-92
2023/10/20 09:57:21;;;;;;;3.63;2.70;;;;;;;;;;6184609;23;20180;-91
2023/10/20 09:59:53;;;;;;;2.20;2.00;;;;;;;;;;6185560;23;20178;-92
2023/10/20 10:02:57;;;;;;;2.70;2.43;;;;;;;;;;6184865;23;20213;-92
2023/10/20 10:05:33;;;;;;;1.97;1.87;;;;;;;;;;6184799;23;20234;-92
2023/10/20 10:08:07;;;;;;;1.90;1.80;;;;;;;;;;6185866;23;20206;-92
2023/10/20 10:10:37;;;;;;;2.57;2.30;;;;;;;;;;6184822;23;20183;-91
2023/10/20 10:13:08;;;;;;;2.50;1.87;;;;;;;;;;6184533;23;20252;-91
2023/10/20 10:15:43;;;;;;;2.27;2.07;;;;;;;;;;6185587;23;20180;-92
2023/10/20 10:18:19;;;;;;;2.27;1.90;;;;;;;;;;6185857;23;20177;-92
2023/10/20 10:20:51;;;;;;;2.23;2.03;;;;;;;;;;6185719;23;20183;-92
2023/10/20 10:23:27;;;;;;;2.07;1.90;;;;;;;;;;6185056;23;20220;-91
2023/10/20 10:26:14;;;;;;;1.90;1.80;;;;;;;;;;6185247;23;20204;-93
2023/10/20 10:29:03;;;;;;;1.83;1.67;;;;;;;;;;6185600;23;20173;-92
2023/10/20 10:31:35;;;;;;;2.33;1.90;;;;;;;;;;6184951;23;20179;-92
2023/10/20 10:34:05;;;;;;;2.77;1.70;;;;;;;;;;6184182;23;20193;-90
2023/10/20 10:36:43;;;;;;;2.50;2.30;;;;;;;;;;6185103;23;20173;-91
2023/10/20 10:39:23;;;;;;;2.40;2.03;;;;;;;;;;6183878;23;20177;-91
2023/10/20 10:41:53;;;;;;;2.17;1.80;;;;;;;;;;6183023;23;20174;-91
2023/10/20 10:44:23;;;;;;;2.10;1.90;;;;;;;;;;6182490;23;20254;-91
2023/10/20 10:46:52;;;;;;;1.83;1.73;;;;;;;;;;6183746;23;20169;-92
2023/10/20 10:49:28;;;;;;;2.03;1.90;;;;;;;;;;6184721;23;20170;-91
2023/10/20 10:52:07;;;;;;;1.60;1.50;;;;;;;;;;6184787;23;20200;-92
2023/10/20 10:55:03;;;;;;;1.90;1.80;;;;;;;;;;6184863;23;20174;-91
2023/10/20 10:57:35;;;;;;;1.70;1.50;;;;;;;;;;6180923;23;20178;-91
2023/10/20 11:00:06;;;;;;;2.40;1.83;;;;;;;;;;6185240;23;20178;-91
2023/10/20 11:02:35;;;;;;;1.77;1.67;;;;;;;;;;6183897;23;20169;-91
2023/10/20 11:05:10;;;;;;;1.67;1.57;;;;;;;;;;6184530;23;20221;-91
2023/10/20 11:07:42;;;;;;;2.13;1.80;;;;;;;;;;6184691;23;20208;-91
2023/10/20 11:10:15;;;;;;;2.20;2.00;;;;;;;;;;6184819;23;20219;-91
2023/10/20 11:12:52;;;;;;;1.70;1.60;;;;;;;;;;6184511;23;20211;-91
2023/10/20 11:15:30;;;;;;;3.10;1.97;;;;;;;;;;6184710;23;20184;-91
2023/10/20 11:18:23;;;;;;;1.47;1.37;;;;;;;;;;6185600;23;20208;-91
2023/10/20 11:20:56;;;;;;;2.57;1.77;;;;;;;;;;6183970;23;20173;-90
2023/10/20 11:23:32;;;;;;;1.93;1.83;;;;;;;;;;6184181;23;20299;-91
2023/10/20 11:26:04;;;;;;;1.60;1.50;;;;;;;;;;6184894;23;20173;-92
2023/10/20 11:28:33;;;;;;;2.03;1.40;;;;;;;;;;6184654;23;20173;-92
2023/10/20 11:31:02;;;;;;;1.50;1.40;;;;;;;;;;6185757;23;20249;-92
2023/10/20 11:33:31;;;;;;;1.90;1.80;;;;;;;;;;6186096;23;20165;-91
2023/10/20 11:36:04;;;;;;;1.40;1.30;;;;;;;;;;6186857;23;20173;-92
2023/10/20 11:38:35;;;;;;;1.90;1.20;;;;;;;;;;6187421;23;20173;-92
2023/10/20 11:41:07;;;;;;;1.20;1.20;;;;;;;;;;6186781;23;20181;-90
2023/10/20 11:43:37;;;;;;;1.40;1.30;;;;;;;;;;6186083;23;20271;-89
2023/10/20 11:51:00;;;;;;;1.53;1.43;;;;;;;;;;6094641;23;20190;-91
2023/10/20 11:53:51;;;;;;;1.37;1.27;;;;;;;;;;6087598;23;20183;-91
2023/10/20 11:56:53;;;;;;;;;;;;;;;;;;;;;
2023/10/20 11:59:23;;;;;;;1.57;1.47;;;;;;;;;;6094614;23;20186;-92
2023/10/20 12:01:55;;;;;;;3.00;1.30;;;;;;;;;;6093756;23;20242;-91
2023/10/20 12:04:36;;;;;;;1.40;1.30;;;;;;;;;;6094158;23;20199;-91
2023/10/20 12:07:20;;;;;;;1.40;1.17;;;;;;;;;;6093716;23;20193;-89
2023/10/20 12:09:50;;;;;;;1.50;1.40;;;;;;;;;;6092800;23;20206;-92
2023/10/20 12:12:19;;;;;;;1.07;1.07;;;;;;;;;;6092945;23;20246;-90
2023/10/20 12:14:49;;;;;;;1.53;1.13;;;;;;;;;;6093497;23;20217;-91
2023/10/20 12:17:20;;;;;;;1.17;1.07;;;;;;;;;;6094319;23;20185;-91
2023/10/20 12:19:49;;;;;;;1.50;1.40;;;;;;;;;;6093077;23;20202;-91
2023/10/20 12:22:27;;;;;;;1.10;1.10;;;;;;;;;;6093730;23;20222;-92
2023/10/20 12:28:59;;;;;;;2.00;1.40;;;;;;;;;;6183126;23;20216;-91
2023/10/20 12:31:29;;;;;;;1.53;1.43;;;;;;;;;;6185526;23;20181;-91
2023/10/20 12:33:58;;;;;;;1.00;1.00;;;;;;;;;;6185213;23;20243;-91
2023/10/20 12:36:31;;;;;;;1.03;1.03;;;;;;;;;;6184819;23;20184;-91
2023/10/20 12:39:06;;;;;;;1.10;1.10;;;;;;;;;;6184732;23;20179;-90
2023/10/20 12:41:36;;;;;;;1.00;1.00;;;;;;;;;;6184842;23;20173;-91
2023/10/20 12:44:11;;;;;;;1.10;1.10;;;;;;;;;;6184800;23;20286;-90
2023/10/20 12:47:06;;;;;;;1.57;1.47;;;;;;;;;;6185914;23;20171;-90
2023/10/20 12:49:44;;;;;;;1.13;1.13;;;;;;;;;;6184107;23;20176;-92
2023/10/20 12:52:16;;;;;;;1.03;0.90;;;;;;;;;;6185880;23;20181;-91
2023/10/20 12:54:45;;;;;;;0.83;0.83;;;;;;;;;;6185440;23;20176;-91
2023/10/20 12:57:14;;;;;;;1.33;1.17;;;;;;;;;;6185365;23;20212;-91
2023/10/20 12:59:46;;;;;;;0.70;0.70;;;;;;;;;;6184572;23;20240;-90
2023/10/20 13:02:19;;;;;;;1.00;1.00;;;;;;;;;;6184771;23;20256;-90
2023/10/20 13:04:51;;;;;;;0.80;0.80;;;;;;;;;;6185241;23;20217;-91
2023/10/20 13:07:35;;;;;;;;;;;;;;;;;;;;;
2023/10/20 13:10:05;;;;;;;1.10;1.10;;;;;;;;;;6185277;23;20178;-90
2023/10/20 13:12:36;;;;;;;0.77;0.77;;;;;;;;;;6184650;23;20228;-90
2023/10/20 13:15:11;;;;;;;1.60;1.40;;;;;;;;;;6186045;23;20173;-90
2023/10/20 13:17:40;;;;;;;1.23;1.03;;;;;;;;;;6186378;23;20232;-90
2023/10/20 13:20:11;;;;;;;0.90;0.90;;;;;;;;;;6186159;23;20197;-91
2023/10/20 13:22:40;;;;;;;1.33;1.23;;;;;;;;;;6186194;23;20179;-91
2023/10/20 13:25:10;;;;;;;0.83;0.83;;;;;;;;;;6186497;23;20185;-90
2023/10/20 13:27:42;;;;;;;1.90;1.10;;;;;;;;;;6185910;23;20174;-91
2023/10/20 13:30:13;;;;;;;1.17;1.17;;;;;;;;;;6185424;23;20208;-91
2023/10/20 13:32:41;;;;;;;0.77;0.77;;;;;;;;;;6185648;23;20248;-91
2023/10/20 13:35:10;;;;;;;1.10;1.10;;;;;;;;;;6185496;23;20216;-91
2023/10/20 13:37:39;;;;;;;0.87;0.87;;;;;;;;;;6185478;23;20176;-91
2023/10/20 13:40:10;;;;;;;1.30;0.90;;;;;;;;;;6185811;23;20253;-90
2023/10/20 13:42:40;;;;;;;1.00;0.90;;;;;;;;;;6185858;23;20176;-91
2023/10/20 13:45:09;;;;;;;1.60;1.17;;;;;;;;;;6186108;23;20227;-90
2023/10/20 13:47:39;;;;;;;1.00;0.90;;;;;;;;;;6185651;23;20173;-90
2023/10/20 13:50:08;;;;;;;1.00;1.00;;;;;;;;;;6191841;23;20199;-89
2023/10/20 13:52:37;;;;;;;0.80;0.80;;;;;;;;;;6200465;23;20167;-89
2023/10/20 13:55:08;;;;;;;1.20;1.10;;;;;;;;;;6192341;23;20168;-90
2023/10/20 13:57:37;;;;;;;1.00;1.00;;;;;;;;;;6187289;23;20171;-91
2023/10/20 14:00:06;;;;;;;4.90;1.60;;;;;;;;;;6188707;23;20172;-90
2023/10/20 14:02:36;;;;;;;1.03;1.03;;;;;;;;;;6195038;23;20187;-89
2023/10/20 14:05:06;;;;;;;1.30;1.20;;;;;;;;;;6198850;23;20196;-91
2023/10/20 14:07:36;;;;;;;2.00;1.37;;;;;;;;;;6190856;23;20176;-89
2023/10/20 14:10:05;;;;;;;1.17;1.10;;;;;;;;;;6186577;23;20208;-90
2023/10/20 14:12:35;;;;;;;1.23;0.90;;;;;;;;;;6185632;23;20220;-91
2023/10/20 14:15:04;;;;;;;1.00;1.00;;;;;;;;;;6186201;23;20170;-90
2023/10/20 14:17:33;;;;;;;1.27;1.23;;;;;;;;;;6183846;23;20170;-91
2023/10/20 14:20:02;;;;;;;1.60;1.30;;;;;;;;;;6183745;23;20200;-90
2023/10/20 14:22:32;;;;;;;1.37;1.00;;;;;;;;;;6184174;23;20223;-90
2023/10/20 14:25:01;;;;;;;1.63;1.50;;;;;;;;;;6185488;23;20208;-90
2023/10/20 14:27:29;;;;;;;0.97;0.97;;;;;;;;;;6185575;23;20207;-90
2023/10/20 14:29:58;;;;;;;0.70;0.70;;;;;;;;;;6186127;23;20181;-89
2023/10/20 14:32:26;;;;;;;1.07;1.07;;;;;;;;;;6186028;23;20201;-90
2023/10/20 14:34:55;;;;;;;1.73;1.30;;;;;;;;;;6185843;23;20174;-89
2023/10/20 14:37:27;;;;;;;1.17;1.07;;;;;;;;;;6186088;23;20186;-89
2023/10/20 14:39:57;;;;;;;1.03;1.03;;;;;;;;;;6186732;23;20187;-90
2023/10/20 14:42:26;;;;;;;0.97;0.97;;;;;;;;;;6186026;23;20213;-90
2023/10/20 14:44:55;;;;;;;1.30;1.20;;;;;;;;;;6185465;23;20174;-90
2023/10/20 14:47:25;;;;;;;0.80;0.80;;;;;;;;;;6185337;23;20172;-90
2023/10/20 14:49:54;;;;;;;1.30;1.20;;;;;;;;;;6186204;23;20177;-90
2023/10/20 14:52:23;;;;;;;1.13;1.13;;;;;;;;;;6185600;23;20179;-91
2023/10/20 14:54:51;;;;;;;1.10;1.00;;;;;;;;;;6187382;23;20204;-91
2023/10/20 14:57:21;;;;;;;1.00;0.90;;;;;;;;;;6187680;23;20186;-91
2023/10/20 14:59:50;;;;;;;0.97;0.97;;;;;;;;;;6187954;23;20283;-92
2023/10/20 15:02:18;;;;;;;0.80;0.80;;;;;;;;;;6188051;23;20178;-89
2023/10/20 15:04:47;;;;;;;0.93;0.77;;;;;;;;;;6186024;23;20184;-89
2023/10/20 15:07:17;;;;;;;3.70;2.43;;;;;;;;;;6185755;23;20197;-89
2023/10/20 15:09:45;;;;;;;1.10;1.10;;;;;;;;;;6186265;23;20177;-89
2023/10/20 15:12:14;;;;;;;1.13;1.13;;;;;;;;;;6185903;23;20269;-89
2023/10/20 15:14:44;;;;;;;1.43;1.20;;;;;;;;;;6185154;23;20180;-90
2023/10/20 15:17:12;;;;;;;1.77;1.50;;;;;;;;;;6185943;23;20203;-89
2023/10/20 15:19:41;;;;;;;0.90;0.90;;;;;;;;;;6185365;23;20203;-90
2023/10/20 15:22:11;;;;;;;1.33;1.23;;;;;;;;;;6185286;23;20195;-90
2023/10/20 15:24:40;;;;;;;1.03;0.93;;;;;;;;;;6184554;23;20174;-90
2023/10/20 15:27:12;;;;;;;1.27;1.20;;;;;;;;;;6184940;23;20248;-90
2023/10/20 15:29:40;;;;;;;0.80;0.80;;;;;;;;;;6186288;23;20206;-89
2023/10/20 15:32:12;;;;;;;0.90;0.90;;;;;;;;;;6184982;23;20200;-89
2023/10/20 15:34:41;;;;;;;1.00;1.00;;;;;;;;;;6184919;23;20183;-89
2023/10/20 15:37:10;;;;;;;0.80;0.80;;;;;;;;;;6184966;23;20337;-89
2023/10/20 15:39:38;;;;;;;0.90;0.90;;;;;;;;;;6185338;23;20185;-89
2023/10/20 15:42:22;;;;;;;0.90;0.87;;;;;;;;;;6184800;23;20213;-89
2023/10/20 15:44:50;;;;;;;0.80;0.80;;;;;;;;;;6185490;23;20177;-89
2023/10/20 15:47:20;;;;;;;0.80;0.80;;;;;;;;;;6184590;23;20204;-90
2023/10/20 15:49:52;;;;;;;1.40;1.10;;;;;;;;;;6184822;23;20177;-91
2023/10/20 15:52:20;;;;;;;0.90;0.90;;;;;;;;;;6184356;23;20178;-89
2023/10/20 15:54:48;;;;;;;1.57;1.27;;;;;;;;;;6185193;23;20262;-89
2023/10/20 15:57:17;;;;;;;1.00;1.00;;;;;;;;;;6184995;23;20166;-89
2023/10/20 15:59:47;;;;;;;1.30;1.20;;;;;;;;;;6185102;23;20201;-89
2023/10/20 16:02:16;;;;;;;1.00;1.00;;;;;;;;;;6183957;23;20216;-89
2023/10/20 16:04:46;;;;;;;2.47;1.23;;;;;;;;;;6184795;23;20174;-89
2023/10/20 16:07:15;;;;;;;2.87;1.30;;;;;;;;;;6184914;23;20198;-89
2023/10/20 16:09:43;;;;;;;1.27;1.20;;;;;;;;;;6184528;23;20182;-89